Time;durP1;ratioP1;P1;durP2;ratioP2;P2;SDS_P1;SDS_P2;PMS_P1;PMS_P2;Temp;Humidity;BMP_temperature;BMP_pressure;BME280_temperature;BME280_humidity;BME280_pressure;Samples;Min_cycle;Max_cycle;Signal;HPM_P1;HPM_P2
2022/03/23 00:01:06;;;;;;;0.30;0.10;;;6.80;44.60;;;;;;5061354;28;20458;-86
2022/03/23 00:03:35;;;;;;;0.40;0.20;;;6.80;44.70;;;;;;5065362;28;20527;-86
2022/03/23 00:06:03;;;;;;;0.30;0.20;;;6.70;44.90;;;;;;5073218;28;20463;-86
2022/03/23 00:08:30;;;;;;;0.30;0.20;;;6.60;45.30;;;;;;5075950;28;20785;-87
2022/03/23 00:10:57;;;;;;;0.40;0.20;;;6.60;45.20;;;;;;5060705;28;20463;-87
2022/03/23 00:13:24;;;;;;;0.30;0.10;;;6.60;45.10;;;;;;5065290;28;20517;-87
2022/03/23 00:15:52;;;;;;;0.30;0.20;;;6.60;45.30;;;;;;5061598;28;20504;-86
2022/03/23 00:18:18;;;;;;;0.30;0.20;;;6.50;45.40;;;;;;5052219;28;20576;-87
2022/03/23 00:20:45;;;;;;;0.40;0.30;;;6.40;45.40;;;;;;5057574;28;20490;-87
2022/03/23 00:23:14;;;;;;;0.30;0.20;;;6.30;45.60;;;;;;5070767;28;20481;-86
2022/03/23 00:25:41;;;;;;;0.30;0.10;;;6.30;45.70;;;;;;5070185;28;20494;-87
2022/03/23 00:28:08;;;;;;;0.40;0.30;;;6.20;46.00;;;;;;5058653;28;20619;-86
2022/03/23 00:30:35;;;;;;;0.40;0.40;;;6.10;46.10;;;;;;5060611;28;20554;-87
2022/03/23 00:33:03;;;;;;;0.83;0.83;;;6.10;46.60;;;;;;5056786;28;20544;-87
2022/03/23 00:35:30;;;;;;;0.40;0.30;;;6.00;46.80;;;;;;5062986;28;20475;-87
2022/03/23 00:37:58;;;;;;;0.30;0.20;;;5.90;46.70;;;;;;5058839;28;20530;-87
2022/03/23 00:40:28;;;;;;;0.40;0.30;;;6.00;46.70;;;;;;5065741;28;20484;-87
2022/03/23 00:42:55;;;;;;;0.50;0.50;;;6.00;46.40;;;;;;5053913;28;20555;-87
2022/03/23 00:45:22;;;;;;;0.97;0.97;;;5.90;46.60;;;;;;5068484;28;20464;-87
2022/03/23 00:47:49;;;;;;;0.30;0.27;;;6.00;46.60;;;;;;5074917;28;20452;-87
2022/03/23 00:50:16;;;;;;;0.30;0.10;;;5.90;46.70;;;;;;5066226;28;20498;-87
2022/03/23 00:52:46;;;;;;;0.67;0.60;;;5.80;46.80;;;;;;5076259;28;20474;-87
2022/03/23 00:55:14;;;;;;;0.30;0.20;;;5.80;46.80;;;;;;5050279;28;20449;-87
2022/03/23 00:57:42;;;;;;;1.40;1.30;;;6.00;46.50;;;;;;5050245;28;20472;-87
2022/03/23 01:00:12;;;;;;;2.37;0.63;;;5.90;46.60;;;;;;5050273;28;20453;-87
2022/03/23 01:02:39;;;;;;;0.30;0.20;;;5.90;46.60;;;;;;5050733;28;20487;-87
2022/03/23 01:05:09;;;;;;;0.30;0.20;;;5.90;46.60;;;;;;5069603;28;20877;-87
2022/03/23 01:07:36;;;;;;;0.30;0.20;;;5.90;46.60;;;;;;5063669;28;20496;-87
2022/03/23 01:10:04;;;;;;;0.40;0.20;;;5.90;46.70;;;;;;5069777;28;20448;-87
2022/03/23 01:12:31;;;;;;;0.30;0.20;;;5.90;46.60;;;;;;5068555;28;20467;-86
2022/03/23 01:14:59;;;;;;;0.30;0.10;;;5.80;46.80;;;;;;5050348;28;20522;-87
2022/03/23 01:17:27;;;;;;;0.40;0.20;;;5.80;47.10;;;;;;5050630;28;20537;-86
2022/03/23 01:19:54;;;;;;;0.30;0.20;;;5.70;47.50;;;;;;5052705;28;20542;-87
2022/03/23 01:22:21;;;;;;;0.30;0.20;;;5.70;47.90;;;;;;5049679;28;20477;-87
2022/03/23 01:24:48;;;;;;;0.30;0.20;;;5.70;47.60;;;;;;5060406;28;20523;-86
2022/03/23 01:27:15;;;;;;;0.30;0.20;;;5.70;47.60;;;;;;5059288;28;20469;-86
2022/03/23 01:29:42;;;;;;;0.40;0.40;;;5.60;47.90;;;;;;5074796;28;20628;-87
2022/03/23 01:32:10;;;;;;;0.30;0.17;;;5.50;48.40;;;;;;5076707;28;20456;-86
2022/03/23 01:34:37;;;;;;;0.30;0.20;;;5.40;48.60;;;;;;5056510;28;20994;-86
2022/03/23 01:37:04;;;;;;;0.30;0.10;;;5.40;48.70;;;;;;5069697;28;20958;-86
2022/03/23 01:39:31;;;;;;;0.30;0.20;;;5.40;48.50;;;;;;5061713;28;20469;-87
2022/03/23 01:41:59;;;;;;;0.30;0.20;;;5.40;48.60;;;;;;5056881;28;20453;-87
2022/03/23 01:44:27;;;;;;;0.30;0.10;;;5.30;48.60;;;;;;5090155;28;20558;-87
2022/03/23 01:47:06;;;;;;;0.63;0.63;;;5.40;48.20;;;;;;5059978;28;20513;-88
2022/03/23 01:49:36;;;;;;;0.40;0.30;;;5.50;48.30;;;;;;5072391;28;20479;-86
2022/03/23 01:52:07;;;;;;;0.30;0.20;;;5.50;48.00;;;;;;5072977;28;20451;-85
2022/03/23 01:54:35;;;;;;;0.30;0.10;;;5.60;47.80;;;;;;5058444;28;20468;-86
2022/03/23 01:57:04;;;;;;;0.30;0.10;;;5.60;47.90;;;;;;5058072;28;20520;-85
2022/03/23 01:59:32;;;;;;;0.40;0.20;;;5.60;47.70;;;;;;5067204;28;20536;-86
2022/03/23 02:01:59;;;;;;;1.90;0.73;;;5.90;47.20;;;;;;5063828;28;20947;-86
2022/03/23 02:04:26;;;;;;;0.60;0.60;;;5.70;47.60;;;;;;5069239;28;20479;-85
2022/03/23 02:06:54;;;;;;;0.40;0.40;;;5.50;48.00;;;;;;5053027;28;20524;-85
2022/03/23 02:09:21;;;;;;;0.30;0.10;;;5.40;48.30;;;;;;5075335;28;20448;-86
2022/03/23 02:11:49;;;;;;;0.60;0.43;;;5.60;47.90;;;;;;5069967;28;20501;-85
2022/03/23 02:14:16;;;;;;;0.30;0.13;;;5.50;48.10;;;;;;5067052;28;20448;-85
2022/03/23 02:16:46;;;;;;;0.30;0.20;;;5.70;47.70;;;;;;5080056;28;20532;-85
2022/03/23 02:19:13;;;;;;;0.43;0.43;;;5.70;47.40;;;;;;5071520;28;20496;-86
2022/03/23 02:21:44;;;;;;;0.30;0.10;;;5.50;47.60;;;;;;5071056;28;20966;-86
2022/03/23 02:24:11;;;;;;;0.40;0.30;;;5.50;47.80;;;;;;5067821;28;20921;-86
2022/03/23 02:26:39;;;;;;;0.43;0.20;;;5.50;47.80;;;;;;5061079;28;20561;-86
2022/03/23 02:29:06;;;;;;;0.30;0.20;;;5.50;47.60;;;;;;5060651;28;21264;-86
2022/03/23 02:31:33;;;;;;;0.30;0.10;;;5.50;48.10;;;;;;5078818;28;20506;-86
2022/03/23 02:34:00;;;;;;;0.40;0.30;;;5.30;47.90;;;;;;5066085;28;20468;-86
2022/03/23 02:36:27;;;;;;;3.83;0.67;;;5.30;48.10;;;;;;5053949;28;20453;-86
2022/03/23 02:38:56;;;;;;;0.30;0.10;;;5.10;48.80;;;;;;5077762;28;20450;-86
2022/03/23 02:41:23;;;;;;;0.30;0.10;;;5.20;48.50;;;;;;5055481;28;20526;-86
2022/03/23 02:43:50;;;;;;;0.30;0.10;;;5.20;48.80;;;;;;5054839;28;20472;-87
2022/03/23 02:46:19;;;;;;;0.90;0.90;;;5.10;48.80;;;;;;5062333;28;20468;-86
2022/03/23 02:48:49;;;;;;;0.30;0.20;;;5.10;48.80;;;;;;5072069;28;20451;-86
2022/03/23 02:51:16;;;;;;;0.30;0.10;;;5.10;49.10;;;;;;5054727;28;20501;-86
2022/03/23 03:02:18;;;;;;;0.30;0.10;;;5.00;49.10;;;;;;5056116;28;20458;-85
2022/03/23 03:04:46;;;;;;;1.20;1.10;;;5.00;49.10;;;;;;5072600;28;20510;-86
2022/03/23 03:07:13;;;;;;;0.40;0.20;;;5.00;49.10;;;;;;5076358;28;20538;-85
2022/03/23 03:09:40;;;;;;;0.30;0.10;;;4.90;49.20;;;;;;5094889;28;20428;-85
2022/03/23 03:12:10;;;;;;;0.30;0.10;;;4.80;49.60;;;;;;5087787;28;20502;-84
2022/03/23 03:14:37;;;;;;;0.30;0.10;;;4.50;50.20;;;;;;5077577;28;20813;-86
2022/03/23 03:17:05;;;;;;;0.30;0.20;;;4.30;51.10;;;;;;5077356;28;20486;-86
2022/03/23 03:19:32;;;;;;;0.30;0.17;;;4.10;51.80;;;;;;5082814;28;20515;-86
2022/03/23 03:21:59;;;;;;;0.30;0.10;;;3.90;52.50;;;;;;5079580;28;20453;-86
2022/03/23 03:24:27;;;;;;;0.30;0.10;;;3.80;52.90;;;;;;5075618;28;20540;-86
2022/03/23 03:26:54;;;;;;;0.30;0.10;;;3.60;53.40;;;;;;5070151;28;20448;-86
2022/03/23 03:29:23;;;;;;;0.30;0.10;;;3.50;54.00;;;;;;5063011;28;20509;-87
2022/03/23 03:31:50;;;;;;;0.30;0.10;;;3.30;54.50;;;;;;5068039;28;20544;-86
2022/03/23 03:34:17;;;;;;;0.30;0.10;;;3.10;54.70;;;;;;5066544;28;20460;-86
2022/03/23 03:36:44;;;;;;;0.30;0.20;;;3.00;55.40;;;;;;5067972;28;20517;-86
2022/03/23 03:39:11;;;;;;;0.30;0.20;;;2.90;55.50;;;;;;5068382;28;20451;-86
2022/03/23 03:41:39;;;;;;;0.30;0.10;;;2.80;56.40;;;;;;5070675;28;20454;-86
2022/03/23 03:44:07;;;;;;;0.47;0.47;;;2.70;56.50;;;;;;5068404;28;20484;-87
2022/03/23 03:46:36;;;;;;;0.30;0.17;;;2.60;56.40;;;;;;5066540;28;21082;-87
2022/03/23 03:49:03;;;;;;;0.40;0.30;;;2.40;56.70;;;;;;5070860;28;20451;-86
2022/03/23 03:51:30;;;;;;;0.30;0.20;;;2.50;57.00;;;;;;5065274;28;20931;-87
2022/03/23 03:53:57;;;;;;;0.30;0.20;;;2.60;57.10;;;;;;5067995;28;20471;-87
2022/03/23 03:56:24;;;;;;;0.30;0.20;;;2.50;57.20;;;;;;5069606;28;20546;-87
2022/03/23 03:58:52;;;;;;;0.40;0.30;;;2.40;57.50;;;;;;5069785;28;20444;-87
2022/03/23 04:01:20;;;;;;;0.30;0.10;;;2.20;57.80;;;;;;5068256;28;20463;-87
2022/03/23 04:03:49;;;;;;;27.57;2.83;;;2.20;58.20;;;;;;5070161;28;20491;-87
2022/03/23 04:06:16;;;;;;;0.30;0.10;;;2.10;58.30;;;;;;5067551;28;20458;-86
2022/03/23 04:08:43;;;;;;;0.40;0.40;;;2.10;58.60;;;;;;5070874;28;20456;-87
2022/03/23 04:11:09;;;;;;;0.30;0.20;;;2.00;58.90;;;;;;5064638;28;20476;-87
2022/03/23 04:13:36;;;;;;;0.30;0.10;;;2.00;59.30;;;;;;5068315;28;20517;-87
2022/03/23 04:16:04;;;;;;;0.40;0.40;;;1.90;59.30;;;;;;5063994;28;20516;-87
2022/03/23 04:18:31;;;;;;;0.30;0.10;;;1.80;59.30;;;;;;5069033;28;21057;-86
2022/03/23 04:20:59;;;;;;;0.30;0.20;;;1.80;60.00;;;;;;5069896;28;20505;-88
2022/03/23 04:23:26;;;;;;;0.30;0.20;;;1.90;59.60;;;;;;5065403;28;21048;-86
2022/03/23 04:25:53;;;;;;;0.43;0.43;;;1.80;59.80;;;;;;5063111;28;20456;-87
2022/03/23 04:28:21;;;;;;;0.40;0.30;;;1.70;59.70;;;;;;5068543;28;20463;-87
2022/03/23 04:30:48;;;;;;;0.30;0.10;;;1.80;59.90;;;;;;5070001;28;20455;-86
2022/03/23 04:33:15;;;;;;;0.30;0.17;;;1.80;60.00;;;;;;5068721;28;20468;-86
2022/03/23 04:35:42;;;;;;;0.47;0.40;;;1.70;60.80;;;;;;5069765;28;20479;-86
2022/03/23 04:38:11;;;;;;;0.30;0.10;;;1.60;61.80;;;;;;5066680;28;20465;-88
2022/03/23 04:40:38;;;;;;;0.30;0.10;;;1.60;62.30;;;;;;5066467;28;20934;-87
2022/03/23 04:43:05;;;;;;;0.30;0.20;;;1.60;62.20;;;;;;5068828;28;20464;-87
2022/03/23 04:45:32;;;;;;;0.30;0.10;;;1.60;62.50;;;;;;5064816;28;22307;-87
2022/03/23 04:47:59;;;;;;;0.30;0.20;;;1.70;62.70;;;;;;5067956;28;20492;-87
2022/03/23 04:50:26;;;;;;;0.30;0.10;;;1.60;62.60;;;;;;5066282;28;20510;-87
2022/03/23 04:52:53;;;;;;;0.30;0.20;;;1.70;63.00;;;;;;5066898;28;20451;-87
2022/03/23 04:55:21;;;;;;;0.30;0.20;;;1.60;62.90;;;;;;5066537;28;20448;-87
2022/03/23 04:57:49;;;;;;;0.30;0.20;;;1.50;63.00;;;;;;5068209;28;20459;-87
2022/03/23 05:00:20;;;;;;;0.57;0.57;;;1.50;63.70;;;;;;5065000;28;20454;-87
2022/03/23 05:02:49;;;;;;;0.30;0.10;;;1.60;63.60;;;;;;5065678;28;20462;-87
2022/03/23 05:05:16;;;;;;;0.30;0.10;;;1.70;63.20;;;;;;5066011;28;20487;-87
2022/03/23 05:07:45;;;;;;;0.30;0.10;;;1.80;63.40;;;;;;5062640;28;20471;-87
2022/03/23 05:10:13;;;;;;;0.47;0.47;;;1.70;64.10;;;;;;5077701;28;20469;-87
2022/03/23 05:12:44;;;;;;;0.30;0.20;;;1.70;63.60;;;;;;5074306;28;20551;-86
2022/03/23 05:15:11;;;;;;;0.30;0.20;;;1.80;63.30;;;;;;5063420;28;20461;-88
2022/03/23 05:17:39;;;;;;;0.30;0.20;;;1.70;62.90;;;;;;5069131;28;20516;-87
2022/03/23 05:20:08;;;;;;;0.30;0.10;;;1.70;63.10;;;;;;5068541;28;20482;-87
2022/03/23 05:22:37;;;;;;;0.30;0.10;;;1.70;63.60;;;;;;5061771;28;20467;-87
2022/03/23 05:25:05;;;;;;;0.30;0.20;;;1.70;64.40;;;;;;5065120;28;20513;-87
2022/03/23 05:27:34;;;;;;;0.30;0.10;;;1.70;64.50;;;;;;5069527;28;20953;-87
2022/03/23 05:30:03;;;;;;;0.30;0.10;;;1.70;64.60;;;;;;5062574;28;20859;-87
2022/03/23 05:32:30;;;;;;;0.30;0.20;;;1.90;64.80;;;;;;5064150;28;20495;-87
2022/03/23 05:34:57;;;;;;;0.30;0.10;;;1.80;65.40;;;;;;5062998;28;20504;-87
2022/03/23 05:37:31;;;;;;;0.30;0.10;;;1.90;66.50;;;;;;5067250;28;20456;-90
2022/03/23 05:39:58;;;;;;;0.97;0.83;;;2.00;66.00;;;;;;5063207;28;20945;-86
2022/03/23 05:42:26;;;;;;;0.40;0.20;;;2.10;67.50;;;;;;5065563;28;20472;-87
2022/03/23 05:44:53;;;;;;;0.30;0.10;;;2.00;69.20;;;;;;5061800;28;20982;-85
2022/03/23 05:47:21;;;;;;;0.30;0.10;;;1.90;70.30;;;;;;5063509;28;20548;-86
2022/03/23 05:49:49;;;;;;;0.30;0.10;;;2.10;70.20;;;;;;5061254;28;20721;-85
2022/03/23 05:52:16;;;;;;;0.30;0.10;;;2.10;70.40;;;;;;5061311;28;20493;-84
2022/03/23 05:54:43;;;;;;;0.30;0.10;;;2.20;71.10;;;;;;5060798;28;20918;-85
2022/03/23 05:57:10;;;;;;;0.30;0.10;;;2.20;70.90;;;;;;5063465;28;20475;-85
2022/03/23 05:59:37;;;;;;;0.47;0.40;;;2.30;69.90;;;;;;5062042;28;20486;-84
2022/03/23 06:02:04;;;;;;;0.97;0.83;;;2.50;67.40;;;;;;5063557;28;20941;-84
2022/03/23 06:04:32;;;;;;;0.30;0.10;;;2.60;67.10;;;;;;5063617;28;20483;-85
2022/03/23 06:06:59;;;;;;;0.30;0.10;;;2.60;67.70;;;;;;5061134;28;20942;-84
2022/03/23 06:09:26;;;;;;;0.50;0.50;;;2.60;69.40;;;;;;5063553;28;20451;-84
2022/03/23 06:11:53;;;;;;;0.30;0.20;;;2.60;69.60;;;;;;5063613;28;20938;-85
2022/03/23 06:14:20;;;;;;;0.30;0.20;;;2.60;70.20;;;;;;5059048;28;20468;-84
2022/03/23 06:16:47;;;;;;;0.30;0.10;;;2.60;70.80;;;;;;5063115;28;20609;-84
2022/03/23 06:19:14;;;;;;;0.30;0.20;;;2.70;71.20;;;;;;5060338;28;20923;-85
2022/03/23 06:21:43;;;;;;;0.30;0.10;;;2.70;71.50;;;;;;5065045;28;20446;-84
2022/03/23 06:24:10;;;;;;;0.30;0.10;;;2.80;73.00;;;;;;5062437;28;20495;-86
2022/03/23 06:26:37;;;;;;;0.33;0.20;;;2.90;74.90;;;;;;5062982;28;20459;-85
2022/03/23 06:29:04;;;;;;;0.50;0.50;;;2.90;75.40;;;;;;5065224;28;20471;-85
2022/03/23 06:31:31;;;;;;;0.30;0.10;;;3.00;75.60;;;;;;5063877;28;20464;-84
2022/03/23 06:33:59;;;;;;;0.40;0.30;;;3.10;74.60;;;;;;5060914;28;20467;-85
2022/03/23 06:36:26;;;;;;;0.30;0.10;;;3.30;74.40;;;;;;5067984;28;20530;-86
2022/03/23 06:38:54;;;;;;;0.30;0.20;;;3.40;74.30;;;;;;5066294;28;20541;-85
2022/03/23 06:41:21;;;;;;;0.43;0.43;;;3.40;73.80;;;;;;5070897;28;20796;-85
2022/03/23 06:43:48;;;;;;;0.30;0.10;;;3.60;72.70;;;;;;5065850;28;20464;-85
2022/03/23 06:46:15;;;;;;;0.30;0.10;;;3.60;71.80;;;;;;5068407;28;20459;-85
2022/03/23 06:48:42;;;;;;;0.30;0.10;;;3.80;71.60;;;;;;5066634;28;20455;-85
2022/03/23 06:51:10;;;;;;;4.00;1.23;;;3.80;70.00;;;;;;5066008;28;20467;-85
2022/03/23 06:53:37;;;;;;;0.40;0.40;;;3.90;69.10;;;;;;5058852;28;20465;-85
2022/03/23 06:56:05;;;;;;;0.40;0.30;;;3.90;69.50;;;;;;5065875;28;20456;-85
2022/03/23 06:58:33;;;;;;;0.30;0.10;;;4.10;70.10;;;;;;5061980;28;20790;-85
2022/03/23 07:01:00;;;;;;;0.30;0.10;;;4.10;69.00;;;;;;5063887;28;20450;-86
2022/03/23 07:03:27;;;;;;;0.30;0.10;;;4.30;67.90;;;;;;5066013;28;20506;-86
2022/03/23 07:05:54;;;;;;;0.30;0.10;;;4.50;67.30;;;;;;5062855;28;20838;-86
2022/03/23 07:11:07;;;;;;;0.30;0.10;;;4.80;66.80;;;;;;5072695;28;20466;-85
2022/03/23 07:13:34;;;;;;;0.30;0.20;;;5.00;67.00;;;;;;5061062;28;20447;-84
2022/03/23 07:16:01;;;;;;;0.40;0.30;;;5.20;65.80;;;;;;5060379;28;20510;-85
2022/03/23 07:18:28;;;;;;;0.40;0.20;;;5.30;65.90;;;;;;5064909;28;20973;-84
2022/03/23 07:20:55;;;;;;;0.30;0.10;;;5.50;66.80;;;;;;5066285;28;20496;-86
2022/03/23 07:23:22;;;;;;;0.30;0.20;;;5.70;65.60;;;;;;5064999;28;20518;-86
2022/03/23 07:25:49;;;;;;;0.40;0.40;;;5.80;65.40;;;;;;5065740;28;20496;-87
2022/03/23 07:28:17;;;;;;;0.40;0.20;;;6.10;64.20;;;;;;5059233;28;20575;-86
2022/03/23 07:30:44;;;;;;;0.30;0.20;;;6.20;63.60;;;;;;5060541;28;20645;-86
2022/03/23 07:33:11;;;;;;;0.40;0.23;;;6.20;62.60;;;;;;5061312;28;20578;-86
2022/03/23 07:35:38;;;;;;;0.30;0.20;;;6.40;61.40;;;;;;5059440;28;20532;-86
2022/03/23 07:38:05;;;;;;;0.60;0.43;;;6.50;60.00;;;;;;5062397;28;20464;-86
2022/03/23 07:40:32;;;;;;;0.30;0.20;;;6.70;59.90;;;;;;5062395;28;20457;-87
2022/03/23 07:43:00;;;;;;;1.47;0.50;;;6.90;58.60;;;;;;5060168;28;20464;-86
2022/03/23 07:45:28;;;;;;;0.30;0.20;;;7.00;58.00;;;;;;5060357;28;20484;-85
2022/03/23 07:47:55;;;;;;;0.30;0.10;;;7.20;58.00;;;;;;5064412;28;20850;-85
2022/03/23 07:50:22;;;;;;;0.40;0.30;;;7.30;56.60;;;;;;5065431;28;21020;-85
2022/03/23 07:52:50;;;;;;;1.17;0.60;;;7.30;57.00;;;;;;5059726;28;20955;-85
2022/03/23 07:55:17;;;;;;;0.57;0.57;;;7.50;56.80;;;;;;5066507;28;20525;-86
2022/03/23 07:57:44;;;;;;;0.30;0.20;;;7.40;56.00;;;;;;5067822;28;20460;-85
2022/03/23 08:00:12;;;;;;;0.30;0.20;;;7.70;55.30;;;;;;5056339;28;20843;-85
2022/03/23 08:02:41;;;;;;;0.30;0.20;;;7.80;55.60;;;;;;5069406;28;20446;-86
2022/03/23 08:05:10;;;;;;;0.30;0.20;;;7.80;55.10;;;;;;5063702;28;20494;-85
2022/03/23 08:07:37;;;;;;;0.30;0.10;;;8.00;56.50;;;;;;5070010;28;20478;-86
2022/03/23 08:10:05;;;;;;;0.30;0.20;;;8.30;55.80;;;;;;5055090;28;20675;-85
2022/03/23 08:12:32;;;;;;;0.30;0.20;;;8.50;54.10;;;;;;5068577;28;20472;-85
2022/03/23 08:14:59;;;;;;;0.30;0.10;;;8.60;53.00;;;;;;5063051;28;20474;-86
2022/03/23 08:17:26;;;;;;;0.30;0.10;;;8.70;52.90;;;;;;5063346;28;20463;-86
2022/03/23 08:22:35;;;;;;;0.30;0.20;;;8.80;52.70;;;;;;5058724;28;20484;-87
2022/03/23 08:25:02;;;;;;;0.40;0.30;;;9.00;52.10;;;;;;5053327;28;20556;-89
2022/03/23 08:27:29;;;;;;;0.30;0.20;;;9.00;52.00;;;;;;5069807;28;20462;-88
2022/03/23 08:29:56;;;;;;;0.30;0.20;;;8.90;52.90;;;;;;5058238;28;20528;-87
2022/03/23 08:32:26;;;;;;;0.30;0.20;;;9.10;53.10;;;;;;5067232;28;22046;-87
2022/03/23 08:34:54;;;;;;;0.30;0.20;;;9.40;52.40;;;;;;5068904;28;20471;-87
2022/03/23 08:37:21;;;;;;;0.30;0.17;;;9.50;52.20;;;;;;5063792;28;20468;-87
2022/03/23 08:39:48;;;;;;;0.30;0.20;;;9.40;51.90;;;;;;5067647;28;20539;-87
2022/03/23 08:42:15;;;;;;;0.40;0.20;;;9.70;53.00;;;;;;5061526;28;20471;-87
2022/03/23 08:44:42;;;;;;;0.30;0.20;;;10.00;51.70;;;;;;5059964;28;20846;-87
2022/03/23 08:47:09;;;;;;;0.30;0.20;;;10.00;50.60;;;;;;5063538;28;20834;-87
2022/03/23 08:49:36;;;;;;;0.97;0.97;;;10.20;50.50;;;;;;5060705;28;20525;-87
2022/03/23 08:52:06;;;;;;;0.30;0.20;;;10.30;50.40;;;;;;5058122;28;20469;-87
2022/03/23 08:54:33;;;;;;;0.40;0.30;;;10.20;48.60;;;;;;5067527;28;20501;-87
2022/03/23 08:57:00;;;;;;;0.50;0.50;;;10.30;49.30;;;;;;5055499;28;20475;-87
2022/03/23 08:59:27;;;;;;;0.30;0.20;;;10.60;50.00;;;;;;5052033;28;20510;-88
2022/03/23 09:01:54;;;;;;;0.40;0.30;;;10.70;49.80;;;;;;5058391;28;20467;-88
2022/03/23 09:04:21;;;;;;;0.87;0.87;;;10.90;48.10;;;;;;5069642;28;20456;-87
2022/03/23 09:06:48;;;;;;;0.40;0.30;;;10.90;47.40;;;;;;5082153;28;20496;-87
2022/03/23 09:09:17;;;;;;;0.30;0.20;;;11.00;46.30;;;;;;5063444;28;20468;-87
2022/03/23 09:11:44;;;;;;;0.40;0.20;;;10.90;46.80;;;;;;5058326;28;20501;-88
2022/03/23 09:14:11;;;;;;;0.30;0.20;;;11.00;47.10;;;;;;5073796;28;20444;-87
2022/03/23 09:16:38;;;;;;;0.43;0.40;;;11.00;46.40;;;;;;5060175;28;20516;-87
2022/03/23 09:19:06;;;;;;;0.30;0.20;;;11.30;48.60;;;;;;5063437;28;20549;-87
2022/03/23 09:21:33;;;;;;;0.60;0.30;;;11.40;46.60;;;;;;5057489;28;20465;-87
2022/03/23 09:24:00;;;;;;;0.30;0.20;;;11.40;45.20;;;;;;5062296;28;20460;-87
2022/03/23 09:26:28;;;;;;;0.30;0.20;;;11.30;45.40;;;;;;5063191;28;21055;-87
2022/03/23 09:28:56;;;;;;;0.47;0.30;;;11.20;46.00;;;;;;5065407;28;20541;-87
2022/03/23 09:31:23;;;;;;;0.30;0.20;;;11.40;46.20;;;;;;5071389;28;20475;-87
2022/03/23 09:33:50;;;;;;;0.30;0.20;;;11.60;46.70;;;;;;5066188;28;20536;-87
2022/03/23 09:39:02;;;;;;;0.30;0.20;;;11.80;45.10;;;;;;5049453;28;20595;-88
2022/03/23 09:41:32;;;;;;;0.40;0.30;;;12.00;44.70;;;;;;5063525;28;20468;-87
2022/03/23 09:44:00;;;;;;;0.30;0.20;;;12.00;46.00;;;;;;5049845;28;20510;-87
2022/03/23 09:46:27;;;;;;;0.30;0.20;;;12.10;44.00;;;;;;5057995;28;20538;-87
2022/03/23 09:48:54;;;;;;;0.30;0.20;;;12.10;45.20;;;;;;5056185;28;20456;-87
2022/03/23 09:51:22;;;;;;;0.67;0.67;;;12.20;44.50;;;;;;5054740;28;20468;-87
2022/03/23 09:53:49;;;;;;;0.40;0.30;;;12.20;44.40;;;;;;5060164;28;20460;-87
2022/03/23 09:56:17;;;;;;;0.30;0.20;;;12.40;43.80;;;;;;5063783;28;20995;-88
2022/03/23 09:58:45;;;;;;;0.67;0.37;;;12.50;43.30;;;;;;5059558;28;21017;-88
2022/03/23 10:02:12;;;;;;;0.40;0.30;;;12.60;42.70;;;;;;5069200;28;20943;-88
2022/03/23 10:05:26;;;;;;;0.40;0.40;;;12.80;42.90;;;;;;5066667;28;20470;-88
2022/03/23 10:08:04;;;;;;;0.30;0.20;;;12.80;42.60;;;;;;5054932;28;20514;-88
2022/03/23 10:11:28;;;;;;;0.40;0.20;;;13.00;44.30;;;;;;5061907;28;20876;-88
2022/03/23 10:14:37;;;;;;;0.40;0.30;;;13.30;42.40;;;;;;5067357;28;20514;-88
2022/03/23 10:17:40;;;;;;;0.40;0.20;;;13.20;42.20;;;;;;5030992;28;20443;-88
2022/03/23 10:20:06;;;;;;;0.53;0.53;;;13.20;42.70;;;;;;5057073;28;20522;-87
2022/03/23 10:22:33;;;;;;;0.40;0.20;;;13.40;42.80;;;;;;5060627;28;20476;-88
2022/03/23 10:25:09;;;;;;;0.40;0.20;;;13.50;42.20;;;;;;5056426;28;21033;-88
2022/03/23 10:27:36;;;;;;;0.40;0.20;;;13.70;42.80;;;;;;5055416;28;20461;-87
2022/03/23 10:30:04;;;;;;;0.33;0.20;;;13.70;41.90;;;;;;5064205;28;20449;-88
2022/03/23 10:32:36;;;;;;;0.50;0.40;;;13.60;40.60;;;;;;5070981;28;20484;-88
2022/03/23 10:35:05;;;;;;;0.40;0.27;;;13.70;40.30;;;;;;5063624;28;20461;-88
2022/03/23 10:37:34;;;;;;;0.40;0.20;;;13.90;39.20;;;;;;5066897;28;20488;-87
2022/03/23 10:40:02;;;;;;;0.30;0.20;;;14.00;39.60;;;;;;5054987;28;20500;-87
2022/03/23 10:42:31;;;;;;;0.50;0.50;;;14.20;39.00;;;;;;5064885;28;20462;-87
2022/03/23 10:45:08;;;;;;;1.00;0.30;;;14.10;37.90;;;;;;5066151;28;21008;-88
2022/03/23 10:47:38;;;;;;;0.30;0.30;;;14.20;38.90;;;;;;5064271;28;20542;-88
2022/03/23 10:50:11;;;;;;;0.97;0.40;;;14.30;39.10;;;;;;5052175;28;20466;-88
2022/03/23 10:52:53;;;;;;;1.53;0.47;;;14.40;38.50;;;;;;5060260;28;20462;-87
2022/03/23 10:55:20;;;;;;;0.30;0.20;;;14.50;37.30;;;;;;5054235;28;20459;-88
2022/03/23 10:58:22;;;;;;;0.30;0.20;;;14.60;41.00;;;;;;5053513;28;20473;-88
2022/03/23 11:00:53;;;;;;;0.40;0.20;;;14.70;38.70;;;;;;5052948;28;20864;-88
2022/03/23 11:03:39;;;;;;;1.13;0.30;;;14.80;37.00;;;;;;5081518;28;20513;-88
2022/03/23 11:06:07;;;;;;;0.50;0.30;;;14.90;38.20;;;;;;5070292;28;20488;-88
2022/03/23 11:08:34;;;;;;;0.30;0.20;;;15.10;38.20;;;;;;5065743;28;20462;-89
2022/03/23 11:16:38;;;;;;;0.70;0.33;;;15.20;37.40;;;;;;5051580;28;20517;-89
2022/03/23 11:19:18;;;;;;;0.40;0.20;;;15.20;34.80;;;;;;5061879;28;20624;-88
2022/03/23 11:22:01;;;;;;;0.30;0.20;;;15.40;36.40;;;;;;5059966;28;20882;-89
2022/03/23 11:24:31;;;;;;;0.30;0.20;;;15.60;35.70;;;;;;5054807;28;20553;-86
2022/03/23 11:27:00;;;;;;;0.50;0.30;;;15.80;36.30;;;;;;5068012;28;20478;-88
2022/03/23 11:29:27;;;;;;;0.70;0.30;;;15.90;33.50;;;;;;5052648;28;20462;-87
2022/03/23 11:31:55;;;;;;;0.40;0.30;;;15.90;34.90;;;;;;5064474;28;20834;-86
2022/03/23 11:34:24;;;;;;;0.40;0.27;;;16.00;31.50;;;;;;5058893;28;20951;-87
2022/03/23 11:36:54;;;;;;;1.07;1.07;;;16.10;30.60;;;;;;5062387;28;20524;-88
2022/03/23 11:39:23;;;;;;;0.30;0.20;;;16.20;33.00;;;;;;5055814;28;20539;-89
2022/03/23 11:41:53;;;;;;;0.83;0.83;;;16.30;32.50;;;;;;5064049;28;20447;-87
2022/03/23 11:44:21;;;;;;;0.50;0.30;;;16.20;32.70;;;;;;5070627;28;20491;-88
2022/03/23 11:46:50;;;;;;;0.30;0.20;;;16.40;34.60;;;;;;5070424;28;20571;-87
2022/03/23 11:49:26;;;;;;;0.30;0.20;;;16.40;33.70;;;;;;5070454;28;20479;-88
2022/03/23 11:52:34;;;;;;;0.40;0.20;;;16.50;32.50;;;;;;5065850;28;20462;-88
2022/03/23 11:58:16;;;;;;;0.30;0.30;;;16.50;31.50;;;;;;5055863;28;20541;-88
2022/03/23 12:00:45;;;;;;;0.30;0.20;;;16.70;30.50;;;;;;5063073;28;20462;-89
2022/03/23 12:03:12;;;;;;;0.40;0.30;;;16.80;29.40;;;;;;5064464;28;20545;-88
2022/03/23 12:05:52;;;;;;;0.30;0.23;;;16.80;30.20;;;;;;5057182;28;20448;-89
2022/03/23 12:08:45;;;;;;;0.40;0.30;;;16.80;29.40;;;;;;5073643;28;20486;-88
2022/03/23 12:11:33;;;;;;;0.40;0.20;;;16.70;28.70;;;;;;5073669;28;20499;-88
2022/03/23 12:14:02;;;;;;;0.40;0.20;;;16.90;31.20;;;;;;5068383;28;20970;-88
2022/03/23 12:17:04;;;;;;;0.30;0.20;;;16.80;28.90;;;;;;5058806;28;20466;-88
2022/03/23 12:19:33;;;;;;;0.37;0.27;;;16.90;29.70;;;;;;5073145;28;20480;-88
2022/03/23 12:22:15;;;;;;;0.30;0.20;;;17.20;31.20;;;;;;5064318;28;20465;-89
2022/03/23 12:24:55;;;;;;;0.60;0.60;;;17.40;30.40;;;;;;5069147;28;21009;-88
2022/03/23 12:27:32;;;;;;;0.30;0.20;;;17.50;30.20;;;;;;5059027;28;20496;-89
2022/03/23 12:30:02;;;;;;;0.30;0.20;;;17.60;27.80;;;;;;5067552;28;20504;-88
2022/03/23 12:32:37;;;;;;;0.30;0.20;;;17.70;28.60;;;;;;5070330;28;20505;-88
2022/03/23 12:35:06;;;;;;;0.60;0.60;;;17.70;29.60;;;;;;5058051;28;20479;-88
2022/03/23 12:37:39;;;;;;;0.40;0.23;;;17.60;28.20;;;;;;5069924;28;20871;-88
2022/03/23 12:40:11;;;;;;;0.40;0.20;;;17.70;29.70;;;;;;5072794;28;20810;-88
2022/03/23 12:42:42;;;;;;;0.93;0.40;;;17.80;28.40;;;;;;5055160;28;20814;-89
2022/03/23 12:45:13;;;;;;;0.30;0.20;;;17.90;28.70;;;;;;5062398;28;20457;-89
2022/03/23 12:47:54;;;;;;;0.30;0.20;;;18.00;28.30;;;;;;5069637;28;20574;-89
2022/03/23 12:59:14;;;;;;;0.33;0.23;;;17.80;27.40;;;;;;5073541;28;21284;-89
2022/03/23 13:01:41;;;;;;;0.40;0.40;;;17.90;27.80;;;;;;5090630;28;20862;-89
2022/03/23 13:04:08;;;;;;;0.40;0.30;;;17.90;27.20;;;;;;5080829;28;20448;-87
2022/03/23 13:06:38;;;;;;;0.50;0.50;;;17.80;24.80;;;;;;5068169;28;20986;-87
2022/03/23 13:09:12;;;;;;;0.30;0.20;;;17.80;25.60;;;;;;5072034;28;20443;-88
2022/03/23 13:11:44;;;;;;;0.30;0.20;;;18.10;28.30;;;;;;5073497;28;20541;-90
2022/03/23 13:14:14;;;;;;;0.40;0.40;;;18.40;28.10;;;;;;5066916;28;20450;-88
2022/03/23 13:16:41;;;;;;;0.37;0.27;;;18.30;25.40;;;;;;5065202;28;20608;-88
2022/03/23 13:19:11;;;;;;;0.30;0.20;;;18.20;25.40;;;;;;5052328;28;20556;-88
2022/03/23 13:21:38;;;;;;;0.40;0.20;;;18.40;25.90;;;;;;5051502;28;20476;-88
2022/03/23 13:24:07;;;;;;;0.30;0.20;;;18.40;25.80;;;;;;5058483;28;20854;-87
2022/03/23 13:26:38;;;;;;;0.40;0.30;;;18.40;24.50;;;;;;5049749;28;20491;-88
2022/03/23 13:29:08;;;;;;;0.40;0.30;;;18.40;24.50;;;;;;5057350;28;20468;-88
2022/03/23 13:31:37;;;;;;;0.40;0.40;;;18.30;25.30;;;;;;5054333;28;20456;-88
2022/03/23 13:34:05;;;;;;;0.40;0.30;;;18.40;26.20;;;;;;5064056;28;20965;-88
2022/03/23 13:36:34;;;;;;;0.40;0.30;;;18.50;25.10;;;;;;5066434;28;20935;-89
2022/03/23 13:39:04;;;;;;;0.40;0.30;;;18.60;26.90;;;;;;5073292;28;20442;-89